sensor_id;sensor_type;location;lat;lon;timestamp;P1;durP1;ratioP1;P2;durP2;ratioP2
67816;SDS011;54614;47.576;7.524;2023-08-06T00:00:38;1.40;;;1.30;;
67816;SDS011;54614;47.576;7.524;2023-08-06T00:03:04;1.40;;;1.30;;
67816;SDS011;54614;47.576;7.524;2023-08-06T00:05:30;1.30;;;1.20;;
67816;SDS011;54614;47.576;7.524;2023-08-06T00:07:56;1.38;;;1.20;;
67816;SDS011;54614;47.576;7.524;2023-08-06T00:10:21;1.42;;;1.33;;
67816;SDS011;54614;47.576;7.524;2023-08-06T00:12:47;1.50;;;1.40;;
67816;SDS011;54614;47.576;7.524;2023-08-06T00:15:13;1.63;;;1.20;;
67816;SDS011;54614;47.576;7.524;2023-08-06T00:17:39;1.50;;;1.40;;
67816;SDS011;54614;47.576;7.524;2023-08-06T00:20:05;2.28;;;1.20;;
67816;SDS011;54614;47.576;7.524;2023-08-06T00:22:32;1.75;;;1.30;;
67816;SDS011;54614;47.576;7.524;2023-08-06T00:25:00;1.60;;;1.50;;
67816;SDS011;54614;47.576;7.524;2023-08-06T00:27:26;1.40;;;1.30;;
67816;SDS011;54614;47.576;7.524;2023-08-06T00:29:52;1.52;;;1.42;;
67816;SDS011;54614;47.576;7.524;2023-08-06T00:32:18;1.40;;;1.30;;
67816;SDS011;54614;47.576;7.524;2023-08-06T00:34:44;1.20;;;1.20;;
67816;SDS011;54614;47.576;7.524;2023-08-06T00:37:10;1.33;;;1.23;;
67816;SDS011;54614;47.576;7.524;2023-08-06T00:39:36;1.23;;;1.23;;
67816;SDS011;54614;47.576;7.524;2023-08-06T00:42:02;1.10;;;1.10;;
67816;SDS011;54614;47.576;7.524;2023-08-06T00:44:28;1.40;;;1.30;;
67816;SDS011;54614;47.576;7.524;2023-08-06T00:46:54;1.30;;;1.20;;
67816;SDS011;54614;47.576;7.524;2023-08-06T00:49:20;1.30;;;1.20;;
67816;SDS011;54614;47.576;7.524;2023-08-06T00:51:46;1.30;;;1.30;;
67816;SDS011;54614;47.576;7.524;2023-08-06T00:54:12;1.05;;;1.05;;
67816;SDS011;54614;47.576;7.524;2023-08-06T00:56:39;1.25;;;1.20;;
67816;SDS011;54614;47.576;7.524;2023-08-06T00:59:07;1.05;;;1.05;;
67816;SDS011;54614;47.576;7.524;2023-08-06T01:01:35;1.55;;;1.15;;
67816;SDS011;54614;47.576;7.524;2023-08-06T01:04:01;1.30;;;1.30;;
67816;SDS011;54614;47.576;7.524;2023-08-06T01:06:47;1.10;;;1.10;;
67816;SDS011;54614;47.576;7.524;2023-08-06T01:15:19;1.50;;;1.30;;
67816;SDS011;54614;47.576;7.524;2023-08-06T01:17:52;1.00;;;1.00;;
67816;SDS011;54614;47.576;7.524;2023-08-06T01:20:19;1.45;;;1.25;;
67816;SDS011;54614;47.576;7.524;2023-08-06T01:22:45;1.38;;;1.00;;
67816;SDS011;54614;47.576;7.524;2023-08-06T01:25:11;1.00;;;1.00;;
67816;SDS011;54614;47.576;7.524;2023-08-06T01:27:46;1.33;;;1.20;;
67816;SDS011;54614;47.576;7.524;2023-08-06T01:30:27;1.00;;;1.00;;
67816;SDS011;54614;47.576;7.524;2023-08-06T01:33:02;1.20;;;1.20;;
67816;SDS011;54614;47.576;7.524;2023-08-06T01:35:31;1.00;;;1.00;;
67816;SDS011;54614;47.576;7.524;2023-08-06T01:38:00;1.60;;;0.95;;
67816;SDS011;54614;47.576;7.524;2023-08-06T01:40:27;1.00;;;1.00;;
67816;SDS011;54614;47.576;7.524;2023-08-06T01:42:54;1.05;;;1.05;;
67816;SDS011;54614;47.576;7.524;2023-08-06T01:45:20;1.00;;;1.00;;
67816;SDS011;54614;47.576;7.524;2023-08-06T01:47:46;0.90;;;0.90;;
67816;SDS011;54614;47.576;7.524;2023-08-06T01:50:11;1.10;;;1.00;;
67816;SDS011;54614;47.576;7.524;2023-08-06T01:52:37;1.10;;;1.10;;
67816;SDS011;54614;47.576;7.524;2023-08-06T01:55:03;1.10;;;1.10;;
67816;SDS011;54614;47.576;7.524;2023-08-06T01:57:29;1.02;;;1.02;;
67816;SDS011;54614;47.576;7.524;2023-08-06T01:59:55;1.02;;;1.02;;
67816;SDS011;54614;47.576;7.524;2023-08-06T02:02:20;1.00;;;1.00;;
67816;SDS011;54614;47.576;7.524;2023-08-06T02:04:46;1.00;;;1.00;;
67816;SDS011;54614;47.576;7.524;2023-08-06T02:07:12;1.10;;;1.00;;
67816;SDS011;54614;47.576;7.524;2023-08-06T02:09:37;0.90;;;0.90;;
67816;SDS011;54614;47.576;7.524;2023-08-06T02:12:03;1.20;;;1.10;;
67816;SDS011;54614;47.576;7.524;2023-08-06T02:14:30;1.20;;;1.17;;
67816;SDS011;54614;47.576;7.524;2023-08-06T02:16:55;0.90;;;0.90;;
67816;SDS011;54614;47.576;7.524;2023-08-06T02:19:21;0.90;;;0.90;;
67816;SDS011;54614;47.576;7.524;2023-08-06T02:21:47;1.00;;;1.00;;
67816;SDS011;54614;47.576;7.524;2023-08-06T02:24:13;0.95;;;0.95;;
67816;SDS011;54614;47.576;7.524;2023-08-06T02:26:38;1.10;;;1.10;;
67816;SDS011;54614;47.576;7.524;2023-08-06T02:29:04;0.90;;;0.90;;
67816;SDS011;54614;47.576;7.524;2023-08-06T02:31:30;0.90;;;0.90;;
67816;SDS011;54614;47.576;7.524;2023-08-06T02:33:55;0.82;;;0.82;;
67816;SDS011;54614;47.576;7.524;2023-08-06T02:36:22;0.90;;;0.90;;
67816;SDS011;54614;47.576;7.524;2023-08-06T02:38:47;0.80;;;0.80;;
67816;SDS011;54614;47.576;7.524;2023-08-06T02:41:13;0.90;;;0.90;;
67816;SDS011;54614;47.576;7.524;2023-08-06T02:43:39;1.00;;;1.00;;
67816;SDS011;54614;47.576;7.524;2023-08-06T02:46:05;0.85;;;0.85;;
67816;SDS011;54614;47.576;7.524;2023-08-06T02:48:30;0.88;;;0.88;;
67816;SDS011;54614;47.576;7.524;2023-08-06T02:50:57;0.88;;;0.88;;
67816;SDS011;54614;47.576;7.524;2023-08-06T02:53:24;0.90;;;0.90;;
67816;SDS011;54614;47.576;7.524;2023-08-06T02:55:50;0.95;;;0.95;;
67816;SDS011;54614;47.576;7.524;2023-08-06T02:58:17;0.90;;;0.90;;
67816;SDS011;54614;47.576;7.524;2023-08-06T03:00:47;0.90;;;0.90;;
67816;SDS011;54614;47.576;7.524;2023-08-06T03:03:33;1.13;;;0.90;;
67816;SDS011;54614;47.576;7.524;2023-08-06T03:05:59;0.90;;;0.90;;
67816;SDS011;54614;47.576;7.524;2023-08-06T03:08:25;0.90;;;0.90;;
67816;SDS011;54614;47.576;7.524;2023-08-06T03:10:51;0.80;;;0.80;;
67816;SDS011;54614;47.576;7.524;2023-08-06T03:13:18;0.80;;;0.80;;
67816;SDS011;54614;47.576;7.524;2023-08-06T03:18:21;0.70;;;0.70;;
67816;SDS011;54614;47.576;7.524;2023-08-06T03:20:47;0.80;;;0.80;;
67816;SDS011;54614;47.576;7.524;2023-08-06T03:23:13;0.90;;;0.90;;
67816;SDS011;54614;47.576;7.524;2023-08-06T03:25:39;0.70;;;0.70;;
67816;SDS011;54614;47.576;7.524;2023-08-06T03:28:05;0.90;;;0.90;;
67816;SDS011;54614;47.576;7.524;2023-08-06T03:30:30;0.77;;;0.77;;
67816;SDS011;54614;47.576;7.524;2023-08-06T03:32:56;0.82;;;0.82;;
67816;SDS011;54614;47.576;7.524;2023-08-06T03:35:22;0.80;;;0.80;;
67816;SDS011;54614;47.576;7.524;2023-08-06T03:37:47;0.85;;;0.85;;
67816;SDS011;54614;47.576;7.524;2023-08-06T03:40:14;0.77;;;0.77;;
67816;SDS011;54614;47.576;7.524;2023-08-06T03:42:40;0.80;;;0.80;;
67816;SDS011;54614;47.576;7.524;2023-08-06T03:45:06;0.70;;;0.70;;
67816;SDS011;54614;47.576;7.524;2023-08-06T03:47:33;0.70;;;0.70;;
67816;SDS011;54614;47.576;7.524;2023-08-06T03:49:59;0.70;;;0.70;;
67816;SDS011;54614;47.576;7.524;2023-08-06T03:52:25;0.80;;;0.80;;
67816;SDS011;54614;47.576;7.524;2023-08-06T03:54:50;0.70;;;0.70;;
67816;SDS011;54614;47.576;7.524;2023-08-06T03:57:16;1.67;;;0.70;;
67816;SDS011;54614;47.576;7.524;2023-08-06T03:59:42;0.80;;;0.80;;
67816;SDS011;54614;47.576;7.524;2023-08-06T04:02:08;0.77;;;0.70;;
67816;SDS011;54614;47.576;7.524;2023-08-06T04:04:34;0.70;;;0.70;;
67816;SDS011;54614;47.576;7.524;2023-08-06T04:06:59;0.70;;;0.70;;
67816;SDS011;54614;47.576;7.524;2023-08-06T04:11:54;0.80;;;0.80;;
67816;SDS011;54614;47.576;7.524;2023-08-06T04:14:19;0.70;;;0.70;;
67816;SDS011;54614;47.576;7.524;2023-08-06T04:16:45;0.80;;;0.80;;
67816;SDS011;54614;47.576;7.524;2023-08-06T04:19:11;0.80;;;0.80;;
67816;SDS011;54614;47.576;7.524;2023-08-06T04:21:37;0.73;;;0.73;;
67816;SDS011;54614;47.576;7.524;2023-08-06T04:24:02;0.73;;;0.73;;
67816;SDS011;54614;47.576;7.524;2023-08-06T04:26:28;0.70;;;0.70;;
67816;SDS011;54614;47.576;7.524;2023-08-06T04:28:54;0.60;;;0.60;;
67816;SDS011;54614;47.576;7.524;2023-08-06T04:31:20;0.82;;;0.65;;
67816;SDS011;54614;47.576;7.524;2023-08-06T04:33:46;0.73;;;0.73;;
67816;SDS011;54614;47.576;7.524;2023-08-06T04:36:12;0.70;;;0.70;;
67816;SDS011;54614;47.576;7.524;2023-08-06T04:38:38;0.70;;;0.70;;
67816;SDS011;54614;47.576;7.524;2023-08-06T04:41:06;0.80;;;0.80;;
67816;SDS011;54614;47.576;7.524;2023-08-06T04:43:32;0.60;;;0.60;;
67816;SDS011;54614;47.576;7.524;2023-08-06T04:45:57;0.60;;;0.60;;
67816;SDS011;54614;47.576;7.524;2023-08-06T04:48:23;0.60;;;0.60;;
67816;SDS011;54614;47.576;7.524;2023-08-06T04:50:49;0.70;;;0.70;;
67816;SDS011;54614;47.576;7.524;2023-08-06T04:53:16;0.60;;;0.60;;
67816;SDS011;54614;47.576;7.524;2023-08-06T04:55:42;0.80;;;0.80;;
67816;SDS011;54614;47.576;7.524;2023-08-06T04:58:12;0.68;;;0.68;;
67816;SDS011;54614;47.576;7.524;2023-08-06T05:00:38;0.63;;;0.63;;
67816;SDS011;54614;47.576;7.524;2023-08-06T05:03:05;0.60;;;0.60;;
67816;SDS011;54614;47.576;7.524;2023-08-06T05:05:31;0.70;;;0.70;;
67816;SDS011;54614;47.576;7.524;2023-08-06T05:07:57;0.57;;;0.57;;
67816;SDS011;54614;47.576;7.524;2023-08-06T05:10:26;0.60;;;0.60;;
67816;SDS011;54614;47.576;7.524;2023-08-06T05:12:52;0.70;;;0.70;;
67816;SDS011;54614;47.576;7.524;2023-08-06T05:15:19;0.57;;;0.57;;
67816;SDS011;54614;47.576;7.524;2023-08-06T05:17:45;1.55;;;0.70;;
67816;SDS011;54614;47.576;7.524;2023-08-06T05:20:11;0.60;;;0.60;;
67816;SDS011;54614;47.576;7.524;2023-08-06T05:22:37;0.60;;;0.60;;
67816;SDS011;54614;47.576;7.524;2023-08-06T05:25:03;0.70;;;0.70;;
67816;SDS011;54614;47.576;7.524;2023-08-06T05:27:29;0.70;;;0.70;;
67816;SDS011;54614;47.576;7.524;2023-08-06T05:29:55;0.73;;;0.73;;
67816;SDS011;54614;47.576;7.524;2023-08-06T05:32:23;0.70;;;0.70;;
67816;SDS011;54614;47.576;7.524;2023-08-06T05:34:49;1.15;;;0.50;;
67816;SDS011;54614;47.576;7.524;2023-08-06T05:37:15;0.70;;;0.70;;
67816;SDS011;54614;47.576;7.524;2023-08-06T05:39:41;0.75;;;0.70;;
67816;SDS011;54614;47.576;7.524;2023-08-06T05:42:06;0.75;;;0.70;;
67816;SDS011;54614;47.576;7.524;2023-08-06T05:44:32;0.70;;;0.70;;
67816;SDS011;54614;47.576;7.524;2023-08-06T05:46:58;1.60;;;0.75;;
67816;SDS011;54614;47.576;7.524;2023-08-06T05:49:24;1.45;;;0.80;;
67816;SDS011;54614;47.576;7.524;2023-08-06T05:51:49;2.53;;;0.80;;
67816;SDS011;54614;47.576;7.524;2023-08-06T05:54:18;1.40;;;0.90;;
67816;SDS011;54614;47.576;7.524;2023-08-06T05:56:44;1.52;;;0.90;;
67816;SDS011;54614;47.576;7.524;2023-08-06T05:59:10;2.55;;;1.00;;
67816;SDS011;54614;47.576;7.524;2023-08-06T06:01:36;1.52;;;0.90;;
67816;SDS011;54614;47.576;7.524;2023-08-06T06:04:01;1.85;;;1.00;;
67816;SDS011;54614;47.576;7.524;2023-08-06T06:06:28;4.60;;;1.13;;
67816;SDS011;54614;47.576;7.524;2023-08-06T06:08:53;3.03;;;1.20;;
67816;SDS011;54614;47.576;7.524;2023-08-06T06:11:19;5.35;;;1.02;;
67816;SDS011;54614;47.576;7.524;2023-08-06T06:13:47;2.47;;;1.00;;
67816;SDS011;54614;47.576;7.524;2023-08-06T06:16:16;2.78;;;0.90;;
67816;SDS011;54614;47.576;7.524;2023-08-06T06:18:42;3.58;;;0.93;;
67816;SDS011;54614;47.576;7.524;2023-08-06T06:21:08;2.97;;;0.75;;
67816;SDS011;54614;47.576;7.524;2023-08-06T06:23:35;2.28;;;0.80;;
67816;SDS011;54614;47.576;7.524;2023-08-06T06:26:00;2.05;;;0.70;;
67816;SDS011;54614;47.576;7.524;2023-08-06T06:28:26;0.75;;;0.60;;
67816;SDS011;54614;47.576;7.524;2023-08-06T06:30:52;1.10;;;0.98;;
67816;SDS011;54614;47.576;7.524;2023-08-06T06:33:17;1.75;;;0.65;;
67816;SDS011;54614;47.576;7.524;2023-08-06T06:35:43;1.13;;;0.60;;
67816;SDS011;54614;47.576;7.524;2023-08-06T06:38:09;2.97;;;0.70;;
67816;SDS011;54614;47.576;7.524;2023-08-06T06:40:35;1.13;;;0.50;;
67816;SDS011;54614;47.576;7.524;2023-08-06T06:43:00;1.13;;;0.60;;
67816;SDS011;54614;47.576;7.524;2023-08-06T06:45:26;0.52;;;0.52;;
67816;SDS011;54614;47.576;7.524;2023-08-06T06:47:52;0.73;;;0.60;;
67816;SDS011;54614;47.576;7.524;2023-08-06T06:50:17;0.60;;;0.60;;
67816;SDS011;54614;47.576;7.524;2023-08-06T06:52:43;0.85;;;0.68;;
67816;SDS011;54614;47.576;7.524;2023-08-06T06:55:09;0.60;;;0.60;;
67816;SDS011;54614;47.576;7.524;2023-08-06T06:57:35;0.60;;;0.60;;
67816;SDS011;54614;47.576;7.524;2023-08-06T07:00:00;1.45;;;0.40;;
67816;SDS011;54614;47.576;7.524;2023-08-06T07:02:26;0.55;;;0.55;;
67816;SDS011;54614;47.576;7.524;2023-08-06T07:04:52;1.03;;;0.50;;
67816;SDS011;54614;47.576;7.524;2023-08-06T07:07:17;0.60;;;0.60;;
67816;SDS011;54614;47.576;7.524;2023-08-06T07:09:44;0.68;;;0.65;;
67816;SDS011;54614;47.576;7.524;2023-08-06T07:12:09;0.50;;;0.50;;
67816;SDS011;54614;47.576;7.524;2023-08-06T07:14:35;0.50;;;0.50;;
67816;SDS011;54614;47.576;7.524;2023-08-06T07:17:01;1.83;;;0.40;;
67816;SDS011;54614;47.576;7.524;2023-08-06T07:19:27;0.30;;;0.30;;
67816;SDS011;54614;47.576;7.524;2023-08-06T07:21:53;0.52;;;0.50;;
67816;SDS011;54614;47.576;7.524;2023-08-06T07:24:18;0.40;;;0.40;;
67816;SDS011;54614;47.576;7.524;2023-08-06T07:26:44;1.95;;;0.50;;
67816;SDS011;54614;47.576;7.524;2023-08-06T07:29:10;1.33;;;0.50;;
67816;SDS011;54614;47.576;7.524;2023-08-06T07:31:36;0.45;;;0.43;;
67816;SDS011;54614;47.576;7.524;2023-08-06T07:34:01;0.65;;;0.32;;
67816;SDS011;54614;47.576;7.524;2023-08-06T07:36:27;0.55;;;0.55;;
67816;SDS011;54614;47.576;7.524;2023-08-06T07:38:53;0.40;;;0.40;;
67816;SDS011;54614;47.576;7.524;2023-08-06T07:41:24;0.40;;;0.40;;
67816;SDS011;54614;47.576;7.524;2023-08-06T07:43:50;0.60;;;0.53;;
67816;SDS011;54614;47.576;7.524;2023-08-06T07:46:15;0.43;;;0.43;;
67816;SDS011;54614;47.576;7.524;2023-08-06T07:48:41;0.55;;;0.52;;
67816;SDS011;54614;47.576;7.524;2023-08-06T07:51:07;0.45;;;0.45;;
67816;SDS011;54614;47.576;7.524;2023-08-06T07:53:33;0.43;;;0.43;;
67816;SDS011;54614;47.576;7.524;2023-08-06T07:55:58;7.70;;;1.17;;
67816;SDS011;54614;47.576;7.524;2023-08-06T07:58:27;9.90;;;1.30;;
67816;SDS011;54614;47.576;7.524;2023-08-06T08:00:54;6.70;;;0.80;;
67816;SDS011;54614;47.576;7.524;2023-08-06T08:03:20;7.22;;;1.20;;
67816;SDS011;54614;47.576;7.524;2023-08-06T08:05:46;6.57;;;1.55;;
67816;SDS011;54614;47.576;7.524;2023-08-06T08:08:12;7.45;;;1.40;;
67816;SDS011;54614;47.576;7.524;2023-08-06T08:10:37;5.93;;;0.90;;
67816;SDS011;54614;47.576;7.524;2023-08-06T08:13:03;4.57;;;1.02;;
67816;SDS011;54614;47.576;7.524;2023-08-06T08:15:30;12.70;;;1.20;;
67816;SDS011;54614;47.576;7.524;2023-08-06T08:17:57;3.97;;;0.90;;
67816;SDS011;54614;47.576;7.524;2023-08-06T08:20:23;3.45;;;0.80;;
67816;SDS011;54614;47.576;7.524;2023-08-06T08:22:49;11.13;;;0.88;;
67816;SDS011;54614;47.576;7.524;2023-08-06T08:25:15;5.13;;;0.98;;
67816;SDS011;54614;47.576;7.524;2023-08-06T08:27:42;4.75;;;0.77;;
67816;SDS011;54614;47.576;7.524;2023-08-06T08:30:08;0.63;;;0.63;;
67816;SDS011;54614;47.576;7.524;2023-08-06T08:32:34;1.50;;;0.80;;
67816;SDS011;54614;47.576;7.524;2023-08-06T08:35:00;2.47;;;0.82;;
67816;SDS011;54614;47.576;7.524;2023-08-06T08:37:26;4.65;;;0.88;;
67816;SDS011;54614;47.576;7.524;2023-08-06T08:39:51;3.42;;;0.90;;
67816;SDS011;54614;47.576;7.524;2023-08-06T08:42:17;2.45;;;0.75;;
67816;SDS011;54614;47.576;7.524;2023-08-06T08:44:43;1.23;;;0.70;;
67816;SDS011;54614;47.576;7.524;2023-08-06T08:47:10;4.32;;;1.05;;
67816;SDS011;54614;47.576;7.524;2023-08-06T08:49:37;4.32;;;0.70;;
67816;SDS011;54614;47.576;7.524;2023-08-06T08:52:06;0.75;;;0.60;;
67816;SDS011;54614;47.576;7.524;2023-08-06T08:54:37;2.30;;;0.82;;
67816;SDS011;54614;47.576;7.524;2023-08-06T08:57:04;2.60;;;0.60;;
67816;SDS011;54614;47.576;7.524;2023-08-06T08:59:32;5.28;;;0.90;;
67816;SDS011;54614;47.576;7.524;2023-08-06T09:02:00;0.77;;;0.70;;
67816;SDS011;54614;47.576;7.524;2023-08-06T09:04:27;1.75;;;0.65;;
67816;SDS011;54614;47.576;7.524;2023-08-06T09:06:57;3.72;;;0.75;;
67816;SDS011;54614;47.576;7.524;2023-08-06T09:09:34;2.67;;;0.80;;
67816;SDS011;54614;47.576;7.524;2023-08-06T09:12:05;4.47;;;0.63;;
67816;SDS011;54614;47.576;7.524;2023-08-06T09:14:38;2.97;;;0.85;;
67816;SDS011;54614;47.576;7.524;2023-08-06T09:17:05;0.98;;;0.60;;
67816;SDS011;54614;47.576;7.524;2023-08-06T09:19:31;2.05;;;0.70;;
67816;SDS011;54614;47.576;7.524;2023-08-06T09:21:57;2.75;;;0.77;;
67816;SDS011;54614;47.576;7.524;2023-08-06T09:24:23;1.50;;;0.60;;
67816;SDS011;54614;47.576;7.524;2023-08-06T09:26:51;3.92;;;0.73;;
67816;SDS011;54614;47.576;7.524;2023-08-06T09:29:17;2.67;;;0.80;;
67816;SDS011;54614;47.576;7.524;2023-08-06T09:31:44;3.70;;;0.75;;
67816;SDS011;54614;47.576;7.524;2023-08-06T09:34:11;3.78;;;0.75;;
67816;SDS011;54614;47.576;7.524;2023-08-06T09:36:42;6.05;;;1.10;;
67816;SDS011;54614;47.576;7.524;2023-08-06T09:39:16;1.85;;;0.82;;
67816;SDS011;54614;47.576;7.524;2023-08-06T09:41:44;2.97;;;0.57;;
67816;SDS011;54614;47.576;7.524;2023-08-06T09:44:15;1.38;;;0.70;;
67816;SDS011;54614;47.576;7.524;2023-08-06T09:46:50;1.38;;;0.80;;
67816;SDS011;54614;47.576;7.524;2023-08-06T09:49:48;6.90;;;1.00;;
67816;SDS011;54614;47.576;7.524;2023-08-06T09:52:13;1.45;;;0.63;;
67816;SDS011;54614;47.576;7.524;2023-08-06T09:54:41;3.05;;;0.77;;
67816;SDS011;54614;47.576;7.524;2023-08-06T09:57:09;5.13;;;1.00;;
67816;SDS011;54614;47.576;7.524;2023-08-06T09:59:37;2.38;;;0.73;;
67816;SDS011;54614;47.576;7.524;2023-08-06T10:02:12;1.67;;;0.75;;
67816;SDS011;54614;47.576;7.524;2023-08-06T10:04:39;3.63;;;0.77;;
67816;SDS011;54614;47.576;7.524;2023-08-06T10:07:05;5.03;;;0.80;;
67816;SDS011;54614;47.576;7.524;2023-08-06T10:09:31;2.88;;;0.80;;
67816;SDS011;54614;47.576;7.524;2023-08-06T10:11:57;2.28;;;0.60;;
67816;SDS011;54614;47.576;7.524;2023-08-06T10:14:25;3.42;;;0.70;;
67816;SDS011;54614;47.576;7.524;2023-08-06T10:16:57;2.67;;;0.60;;
67816;SDS011;54614;47.576;7.524;2023-08-06T10:19:25;2.33;;;0.75;;
67816;SDS011;54614;47.576;7.524;2023-08-06T10:24:58;3.78;;;0.80;;
67816;SDS011;54614;47.576;7.524;2023-08-06T10:27:33;2.47;;;0.77;;
67816;SDS011;54614;47.576;7.524;2023-08-06T10:32:52;3.47;;;0.80;;
67816;SDS011;54614;47.576;7.524;2023-08-06T10:38:10;1.55;;;0.68;;
67816;SDS011;54614;47.576;7.524;2023-08-06T10:40:52;2.78;;;0.65;;
67816;SDS011;54614;47.576;7.524;2023-08-06T10:43:28;3.65;;;0.70;;
67816;SDS011;54614;47.576;7.524;2023-08-06T10:46:50;1.63;;;0.65;;
67816;SDS011;54614;47.576;7.524;2023-08-06T10:48:53;1.20;;;0.60;;
67816;SDS011;54614;47.576;7.524;2023-08-06T10:51:19;3.42;;;0.68;;
67816;SDS011;54614;47.576;7.524;2023-08-06T10:53:46;1.33;;;0.60;;
67816;SDS011;54614;47.576;7.524;2023-08-06T10:56:14;0.65;;;0.50;;
67816;SDS011;54614;47.576;7.524;2023-08-06T10:58:47;1.35;;;0.70;;
67816;SDS011;54614;47.576;7.524;2023-08-06T11:01:14;3.70;;;0.70;;
67816;SDS011;54614;47.576;7.524;2023-08-06T11:03:44;0.70;;;0.60;;
67816;SDS011;54614;47.576;7.524;2023-08-06T11:06:17;2.67;;;0.82;;
67816;SDS011;54614;47.576;7.524;2023-08-06T11:08:49;1.35;;;0.70;;
67816;SDS011;54614;47.576;7.524;2023-08-06T11:11:18;1.80;;;0.75;;
67816;SDS011;54614;47.576;7.524;2023-08-06T11:13:46;2.25;;;0.60;;
67816;SDS011;54614;47.576;7.524;2023-08-06T11:16:18;3.50;;;0.80;;
67816;SDS011;54614;47.576;7.524;2023-08-06T11:18:51;1.20;;;0.70;;
67816;SDS011;54614;47.576;7.524;2023-08-06T11:21:19;1.17;;;0.70;;
67816;SDS011;54614;47.576;7.524;2023-08-06T11:23:46;0.60;;;0.60;;
67816;SDS011;54614;47.576;7.524;2023-08-06T11:26:12;2.05;;;0.70;;
67816;SDS011;54614;47.576;7.524;2023-08-06T11:28:44;0.85;;;0.52;;
67816;SDS011;54614;47.576;7.524;2023-08-06T11:31:18;1.92;;;0.82;;
67816;SDS011;54614;47.576;7.524;2023-08-06T11:33:51;1.48;;;0.60;;
67816;SDS011;54614;47.576;7.524;2023-08-06T11:36:32;0.68;;;0.68;;
67816;SDS011;54614;47.576;7.524;2023-08-06T11:39:05;1.75;;;0.60;;
67816;SDS011;54614;47.576;7.524;2023-08-06T11:41:31;1.83;;;0.70;;
67816;SDS011;54614;47.576;7.524;2023-08-06T11:44:01;3.65;;;0.60;;
67816;SDS011;54614;47.576;7.524;2023-08-06T11:46:28;0.60;;;0.55;;
67816;SDS011;54614;47.576;7.524;2023-08-06T11:48:54;1.95;;;0.63;;
67816;SDS011;54614;47.576;7.524;2023-08-06T11:51:27;0.73;;;0.70;;
67816;SDS011;54614;47.576;7.524;2023-08-06T11:53:59;0.57;;;0.52;;
67816;SDS011;54614;47.576;7.524;2023-08-06T11:56:25;1.10;;;0.57;;
67816;SDS011;54614;47.576;7.524;2023-08-06T11:58:52;3.40;;;0.70;;
67816;SDS011;54614;47.576;7.524;2023-08-06T12:01:20;1.55;;;0.70;;
67816;SDS011;54614;47.576;7.524;2023-08-06T12:03:46;3.92;;;0.70;;
67816;SDS011;54614;47.576;7.524;2023-08-06T12:06:11;1.88;;;0.70;;
67816;SDS011;54614;47.576;7.524;2023-08-06T12:08:37;0.77;;;0.57;;
67816;SDS011;54614;47.576;7.524;2023-08-06T12:11:03;1.17;;;0.60;;
67816;SDS011;54614;47.576;7.524;2023-08-06T12:13:29;0.50;;;0.50;;
67816;SDS011;54614;47.576;7.524;2023-08-06T12:15:55;0.85;;;0.60;;
67816;SDS011;54614;47.576;7.524;2023-08-06T12:18:22;2.08;;;0.60;;
67816;SDS011;54614;47.576;7.524;2023-08-06T12:20:48;2.15;;;0.73;;
67816;SDS011;54614;47.576;7.524;2023-08-06T12:23:14;3.50;;;0.70;;
67816;SDS011;54614;47.576;7.524;2023-08-06T12:25:40;1.10;;;0.63;;
67816;SDS011;54614;47.576;7.524;2023-08-06T12:28:07;1.35;;;0.60;;
67816;SDS011;54614;47.576;7.524;2023-08-06T12:30:34;0.95;;;0.70;;
67816;SDS011;54614;47.576;7.524;2023-08-06T12:33:00;1.58;;;0.68;;
67816;SDS011;54614;47.576;7.524;2023-08-06T12:35:26;0.60;;;0.60;;
67816;SDS011;54614;47.576;7.524;2023-08-06T12:37:52;0.65;;;0.65;;
67816;SDS011;54614;47.576;7.524;2023-08-06T12:40:20;0.60;;;0.60;;
67816;SDS011;54614;47.576;7.524;2023-08-06T12:42:46;0.77;;;0.60;;
67816;SDS011;54614;47.576;7.524;2023-08-06T12:45:12;0.80;;;0.70;;
67816;SDS011;54614;47.576;7.524;2023-08-06T12:47:37;0.52;;;0.52;;
67816;SDS011;54614;47.576;7.524;2023-08-06T12:50:03;2.08;;;0.70;;
67816;SDS011;54614;47.576;7.524;2023-08-06T12:52:30;0.73;;;0.65;;
67816;SDS011;54614;47.576;7.524;2023-08-06T12:54:55;0.50;;;0.50;;
67816;SDS011;54614;47.576;7.524;2023-08-06T12:57:21;0.50;;;0.50;;
67816;SDS011;54614;47.576;7.524;2023-08-06T12:59:47;0.60;;;0.60;;
67816;SDS011;54614;47.576;7.524;2023-08-06T13:02:13;1.70;;;0.50;;
67816;SDS011;54614;47.576;7.524;2023-08-06T13:04:39;0.60;;;0.50;;
67816;SDS011;54614;47.576;7.524;2023-08-06T13:07:04;1.77;;;0.55;;
67816;SDS011;54614;47.576;7.524;2023-08-06T13:09:31;1.63;;;0.70;;
67816;SDS011;54614;47.576;7.524;2023-08-06T13:11:58;0.77;;;0.60;;
67816;SDS011;54614;47.576;7.524;2023-08-06T13:14:25;0.63;;;0.50;;
67816;SDS011;54614;47.576;7.524;2023-08-06T13:16:50;0.60;;;0.60;;
67816;SDS011;54614;47.576;7.524;2023-08-06T13:19:16;0.70;;;0.50;;
67816;SDS011;54614;47.576;7.524;2023-08-06T13:24:16;0.52;;;0.52;;
67816;SDS011;54614;47.576;7.524;2023-08-06T13:26:43;0.50;;;0.50;;
67816;SDS011;54614;47.576;7.524;2023-08-06T13:29:08;0.85;;;0.60;;
67816;SDS011;54614;47.576;7.524;2023-08-06T13:31:37;0.77;;;0.60;;
67816;SDS011;54614;47.576;7.524;2023-08-06T13:34:03;1.00;;;0.70;;
67816;SDS011;54614;47.576;7.524;2023-08-06T13:36:29;1.00;;;0.57;;
67816;SDS011;54614;47.576;7.524;2023-08-06T13:38:56;0.60;;;0.60;;
67816;SDS011;54614;47.576;7.524;2023-08-06T13:41:22;0.50;;;0.50;;
67816;SDS011;54614;47.576;7.524;2023-08-06T13:43:48;1.70;;;0.50;;
67816;SDS011;54614;47.576;7.524;2023-08-06T13:46:14;0.50;;;0.50;;
67816;SDS011;54614;47.576;7.524;2023-08-06T13:48:45;2.22;;;0.57;;
67816;SDS011;54614;47.576;7.524;2023-08-06T13:51:12;0.50;;;0.50;;
67816;SDS011;54614;47.576;7.524;2023-08-06T13:53:39;1.40;;;0.50;;
67816;SDS011;54614;47.576;7.524;2023-08-06T13:56:06;0.50;;;0.50;;
67816;SDS011;54614;47.576;7.524;2023-08-06T13:58:37;1.42;;;0.60;;
67816;SDS011;54614;47.576;7.524;2023-08-06T14:01:04;1.13;;;0.63;;
67816;SDS011;54614;47.576;7.524;2023-08-06T14:03:29;0.68;;;0.60;;
67816;SDS011;54614;47.576;7.524;2023-08-06T14:05:55;0.52;;;0.52;;
67816;SDS011;54614;47.576;7.524;2023-08-06T14:08:22;0.50;;;0.50;;
67816;SDS011;54614;47.576;7.524;2023-08-06T14:10:51;0.60;;;0.60;;
67816;SDS011;54614;47.576;7.524;2023-08-06T14:13:18;1.30;;;0.50;;
67816;SDS011;54614;47.576;7.524;2023-08-06T14:15:44;0.50;;;0.50;;
67816;SDS011;54614;47.576;7.524;2023-08-06T14:18:14;1.00;;;0.60;;
67816;SDS011;54614;47.576;7.524;2023-08-06T14:20:41;0.73;;;0.60;;
67816;SDS011;54614;47.576;7.524;2023-08-06T14:23:07;0.60;;;0.60;;
67816;SDS011;54614;47.576;7.524;2023-08-06T14:25:33;1.55;;;0.50;;
67816;SDS011;54614;47.576;7.524;2023-08-06T14:27:59;0.52;;;0.52;;
67816;SDS011;54614;47.576;7.524;2023-08-06T14:30:25;0.40;;;0.40;;
67816;SDS011;54614;47.576;7.524;2023-08-06T14:32:51;0.40;;;0.40;;
67816;SDS011;54614;47.576;7.524;2023-08-06T14:35:17;0.60;;;0.60;;
67816;SDS011;54614;47.576;7.524;2023-08-06T14:37:43;0.60;;;0.60;;
67816;SDS011;54614;47.576;7.524;2023-08-06T14:40:10;0.60;;;0.60;;
67816;SDS011;54614;47.576;7.524;2023-08-06T14:42:36;0.57;;;0.57;;
67816;SDS011;54614;47.576;7.524;2023-08-06T14:45:02;0.50;;;0.50;;
67816;SDS011;54614;47.576;7.524;2023-08-06T14:47:29;0.77;;;0.50;;
67816;SDS011;54614;47.576;7.524;2023-08-06T14:49:54;0.73;;;0.63;;
67816;SDS011;54614;47.576;7.524;2023-08-06T14:52:20;0.40;;;0.40;;
67816;SDS011;54614;47.576;7.524;2023-08-06T14:54:46;0.40;;;0.40;;
67816;SDS011;54614;47.576;7.524;2023-08-06T14:57:12;0.82;;;0.60;;
67816;SDS011;54614;47.576;7.524;2023-08-06T14:59:39;0.60;;;0.60;;
67816;SDS011;54614;47.576;7.524;2023-08-06T15:02:05;1.65;;;0.55;;
67816;SDS011;54614;47.576;7.524;2023-08-06T15:04:31;0.60;;;0.60;;
67816;SDS011;54614;47.576;7.524;2023-08-06T15:06:57;0.68;;;0.60;;
67816;SDS011;54614;47.576;7.524;2023-08-06T15:09:23;0.82;;;0.50;;